Valley, Washington
Current Conditions -  °F | °C
As of 5:53 AM on Thursday 29 Jan 2015 (Local Time) from KDEW Reporting Station
Clear Clear  
Wind Chill: 25°   Ceiling: Unl
Heat Index: 25°   Visibility: 10mi
Dew Point: 24°   Wind: 0mph
Humidity: 96%   Direction: NA
Pressure: 30.43"   Gusts: NA
Location:  48.17°N, 117.73°W
Report Text: KDEW 291353Z AUTO 00000KT 10SM CLR M04/M04 A3043 RMK AO2 SLP330 T10391044
Loading
Personal Weather Stations






























Interactive Weather Map New forecast layout! Learn more

10-Day Weather Forecast

Advertisements
Track Severe Weather on mobile